Time;durP1;ratioP1;P1;durP2;ratioP2;P2;SDS_P1;SDS_P2;PMS_P1;PMS_P2;Temp;Humidity;BMP_temperature;BMP_pressure;BME280_temperature;BME280_humidity;BME280_pressure;Samples;Min_cycle;Max_cycle;Signal;HPM_P1;HPM_P2
2023/10/25 00:02:23;;;;;;;11.95;4.47;;;10.00;99.90;;;;;;5072397;28;20055;-71
2023/10/25 00:04:54;;;;;;;6.13;4.30;;;10.00;99.90;;;;;;5072486;28;20048;-71
2023/10/25 00:07:20;;;;;;;10.75;4.72;;;10.00;99.90;;;;;;5072771;28;20113;-71
2023/10/25 00:09:46;;;;;;;9.23;4.35;;;10.00;99.90;;;;;;5072411;28;20041;-71
2023/10/25 00:12:12;;;;;;;7.85;4.70;;;10.00;99.90;;;;;;5072314;28;20080;-71
2023/10/25 00:14:37;;;;;;;9.65;5.57;;;9.90;99.90;;;;;;5072532;28;20086;-71
2023/10/25 00:17:03;;;;;;;8.85;4.53;;;9.90;99.90;;;;;;5072279;28;20407;-71
2023/10/25 00:19:29;;;;;;;10.90;5.07;;;9.90;99.90;;;;;;5072531;28;20136;-71
2023/10/25 00:21:54;;;;;;;10.20;4.65;;;9.90;99.90;;;;;;5072447;28;20045;-71
2023/10/25 00:24:20;;;;;;;10.57;5.68;;;9.80;99.90;;;;;;5072283;28;20056;-71
2023/10/25 00:26:46;;;;;;;12.32;4.50;;;9.80;99.90;;;;;;5072527;28;20047;-71
2023/10/25 00:29:11;;;;;;;9.88;4.93;;;9.80;99.90;;;;;;5072425;28;20049;-71
2023/10/25 00:31:37;;;;;;;6.22;4.32;;;9.80;99.90;;;;;;5072608;28;20048;-71
2023/10/25 00:34:03;;;;;;;11.85;4.28;;;9.80;99.90;;;;;;5055319;28;20052;-71
2023/10/25 00:36:29;;;;;;;8.68;4.60;;;9.80;99.90;;;;;;5073403;28;20044;-72
2023/10/25 00:38:55;;;;;;;8.73;4.68;;;9.80;99.90;;;;;;5056352;28;20543;-71
2023/10/25 00:41:21;;;;;;;10.00;4.53;;;9.80;99.90;;;;;;5074444;28;20104;-71
2023/10/25 00:43:46;;;;;;;13.13;4.60;;;9.70;99.90;;;;;;5073271;28;20047;-72
2023/10/25 00:46:19;;;;;;;14.52;5.32;;;9.70;99.90;;;;;;5053821;28;20059;-71
2023/10/25 00:48:49;;;;;;;9.02;3.78;;;9.70;99.90;;;;;;5071887;28;20444;-71
2023/10/25 00:51:18;;;;;;;6.40;4.70;;;9.70;99.90;;;;;;5072012;28;20052;-71
2023/10/25 00:53:49;;;;;;;8.30;5.10;;;9.70;99.90;;;;;;5071750;28;20060;-71
2023/10/25 00:56:16;;;;;;;12.13;5.13;;;9.70;99.90;;;;;;5071781;28;20280;-71
2023/10/25 00:58:49;;;;;;;10.70;4.72;;;9.70;99.90;;;;;;5053515;28;20582;-71
2023/10/25 01:01:16;;;;;;;8.63;4.65;;;9.70;99.90;;;;;;5036349;28;20056;-71
2023/10/25 01:03:42;;;;;;;14.32;4.75;;;9.70;99.90;;;;;;5071788;28;20072;-71
2023/10/25 01:06:08;;;;;;;7.90;4.75;;;9.70;99.90;;;;;;5070926;28;20045;-71
2023/10/25 01:08:34;;;;;;;7.10;4.50;;;9.60;99.90;;;;;;5053313;28;20060;-71
2023/10/25 01:11:00;;;;;;;8.60;4.57;;;9.70;99.90;;;;;;5053689;28;20055;-71
2023/10/25 01:13:26;;;;;;;10.88;5.32;;;9.60;99.90;;;;;;5071209;28;20404;-71
2023/10/25 01:15:51;;;;;;;11.45;4.25;;;9.70;99.90;;;;;;5071140;28;20083;-71
2023/10/25 01:18:17;;;;;;;14.07;5.35;;;9.70;99.90;;;;;;5071248;28;20063;-72
2023/10/25 01:20:43;;;;;;;8.95;5.03;;;9.70;99.90;;;;;;5053063;28;20045;-71
2023/10/25 01:23:10;;;;;;;13.85;4.75;;;9.60;99.90;;;;;;5071310;28;20408;-71
2023/10/25 01:25:35;;;;;;;7.90;4.82;;;9.60;99.90;;;;;;5071213;28;20083;-71
2023/10/25 01:28:01;;;;;;;14.80;5.05;;;9.70;99.90;;;;;;5070828;28;20506;-71
2023/10/25 01:30:27;;;;;;;6.70;4.45;;;9.60;99.90;;;;;;5071093;28;20113;-71
2023/10/25 01:32:53;;;;;;;6.22;4.60;;;9.60;99.90;;;;;;5070904;28;20095;-71
2023/10/25 01:35:20;;;;;;;15.68;5.65;;;9.60;99.90;;;;;;5070733;28;20060;-71
2023/10/25 01:37:46;;;;;;;8.50;4.72;;;9.60;99.90;;;;;;5070547;28;20105;-71
2023/10/25 01:40:12;;;;;;;8.48;5.05;;;9.60;99.90;;;;;;5070809;28;20048;-71
2023/10/25 01:42:38;;;;;;;9.50;4.55;;;9.60;99.90;;;;;;5070667;28;20052;-71
2023/10/25 01:45:04;;;;;;;7.78;4.53;;;9.50;99.90;;;;;;5070655;28;20367;-71
2023/10/25 01:47:30;;;;;;;8.50;4.60;;;9.50;99.90;;;;;;5068635;28;20155;-71
2023/10/25 01:49:55;;;;;;;8.05;4.90;;;9.60;99.90;;;;;;5050773;28;20120;-71
2023/10/25 01:52:21;;;;;;;10.23;4.55;;;9.60;99.90;;;;;;5050653;28;20067;-71
2023/10/25 01:54:50;;;;;;;11.55;4.75;;;9.50;99.90;;;;;;5015811;28;20053;-72
2023/10/25 01:57:16;;;;;;;6.50;4.57;;;9.50;99.90;;;;;;5050592;28;20068;-71
2023/10/25 01:59:42;;;;;;;12.68;5.93;;;9.60;99.90;;;;;;5050300;28;20091;-71
2023/10/25 02:02:10;;;;;;;9.38;5.07;;;9.50;99.90;;;;;;5050348;28;20048;-71
2023/10/25 02:04:35;;;;;;;8.13;5.38;;;9.50;99.90;;;;;;5050099;28;20424;-71
2023/10/25 02:07:02;;;;;;;9.93;4.95;;;9.60;99.90;;;;;;5050354;28;20049;-71
2023/10/25 02:09:31;;;;;;;10.80;5.53;;;9.50;99.90;;;;;;5050187;28;20068;-71
2023/10/25 02:11:56;;;;;;;8.68;4.60;;;9.50;99.90;;;;;;5031994;28;20571;-71
2023/10/25 02:14:23;;;;;;;7.85;4.53;;;9.50;99.90;;;;;;5049999;28;20055;-71
2023/10/25 02:16:49;;;;;;;11.80;5.22;;;9.40;99.90;;;;;;5049771;28;20132;-71
2023/10/25 02:19:16;;;;;;;11.38;5.60;;;9.40;99.90;;;;;;5049710;28;20044;-71
2023/10/25 02:21:42;;;;;;;10.63;5.07;;;9.50;99.90;;;;;;5031954;28;20610;-71
2023/10/25 02:24:12;;;;;;;10.95;5.03;;;9.40;99.90;;;;;;5049853;28;20061;-72
2023/10/25 02:26:38;;;;;;;10.63;5.63;;;9.30;99.90;;;;;;5049626;28;20158;-71
2023/10/25 02:29:04;;;;;;;10.48;5.32;;;9.50;99.90;;;;;;5050040;28;20124;-71
2023/10/25 02:31:32;;;;;;;13.00;4.82;;;9.40;99.90;;;;;;5049867;28;20051;-71
2023/10/25 02:33:57;;;;;;;9.68;4.80;;;9.40;99.90;;;;;;5031671;28;20136;-71
2023/10/25 02:36:23;;;;;;;11.15;5.93;;;9.30;99.90;;;;;;5049847;28;20128;-71
2023/10/25 02:38:49;;;;;;;9.23;4.95;;;9.40;99.90;;;;;;5049597;28;20063;-71
2023/10/25 02:41:15;;;;;;;8.05;5.15;;;9.40;99.90;;;;;;5049399;28;20048;-71
2023/10/25 02:43:42;;;;;;;6.40;4.95;;;9.30;99.90;;;;;;5049598;28;20440;-71
2023/10/25 02:46:09;;;;;;;9.60;5.88;;;9.30;99.90;;;;;;5031740;28;20053;-70
2023/10/25 02:48:38;;;;;;;9.90;5.50;;;9.40;99.90;;;;;;5031792;28;20534;-71
2023/10/25 02:51:04;;;;;;;11.00;5.75;;;9.30;99.90;;;;;;5031596;28;20144;-71
2023/10/25 02:53:31;;;;;;;11.68;5.10;;;9.30;99.90;;;;;;5049391;28;20044;-71
2023/10/25 02:56:04;;;;;;;8.40;4.57;;;9.30;99.90;;;;;;5049045;28;20049;-71
2023/10/25 02:58:31;;;;;;;8.85;5.40;;;9.30;99.90;;;;;;5049273;28;20455;-71
2023/10/25 03:00:57;;;;;;;7.60;4.82;;;9.30;99.90;;;;;;5049479;28;20429;-70
2023/10/25 03:03:23;;;;;;;8.90;5.20;;;9.30;99.90;;;;;;5049140;28;20511;-71
2023/10/25 03:05:49;;;;;;;13.15;5.85;;;9.30;99.90;;;;;;5049304;28;20060;-71
2023/10/25 03:08:15;;;;;;;9.18;5.32;;;9.30;99.90;;;;;;5031092;28;20052;-71
2023/10/25 03:10:40;;;;;;;14.25;5.43;;;9.30;99.90;;;;;;5049078;28;20037;-71
2023/10/25 03:13:06;;;;;;;9.27;5.68;;;9.30;99.90;;;;;;5048902;28;20079;-71
2023/10/25 03:15:32;;;;;;;9.90;5.53;;;9.30;99.90;;;;;;5031019;28;20064;-71
2023/10/25 03:17:58;;;;;;;8.77;5.15;;;9.30;99.90;;;;;;5030998;28;20068;-71
2023/10/25 03:20:23;;;;;;;8.55;4.97;;;9.30;99.90;;;;;;5049151;28;20071;-70
2023/10/25 03:22:49;;;;;;;15.35;6.43;;;9.30;99.90;;;;;;5048982;28;20049;-71
2023/10/25 03:25:15;;;;;;;13.38;5.28;;;9.20;99.90;;;;;;5048935;28;20444;-70
2023/10/25 03:27:40;;;;;;;10.50;5.32;;;9.20;99.90;;;;;;5048822;28;20048;-71
2023/10/25 03:30:07;;;;;;;15.05;6.15;;;9.20;99.90;;;;;;5030803;28;20180;-71
2023/10/25 03:32:32;;;;;;;8.73;4.50;;;9.20;99.90;;;;;;5048902;28;20047;-71
2023/10/25 03:34:58;;;;;;;9.13;6.10;;;9.20;99.90;;;;;;5048913;28;20527;-71
2023/10/25 03:37:24;;;;;;;7.80;4.93;;;9.10;99.90;;;;;;5048561;28;20057;-71
2023/10/25 03:39:49;;;;;;;8.98;5.05;;;9.10;99.90;;;;;;5048426;28;20084;-71
2023/10/25 03:42:15;;;;;;;10.85;4.95;;;9.10;99.90;;;;;;5048673;28;20128;-70
2023/10/25 03:44:41;;;;;;;11.77;5.40;;;9.00;99.90;;;;;;5048822;28;20049;-70
2023/10/25 03:47:07;;;;;;;11.70;5.22;;;9.00;99.90;;;;;;5048958;28;20052;-70
2023/10/25 03:49:32;;;;;;;8.07;5.22;;;9.00;99.90;;;;;;5013856;28;20068;-70
2023/10/25 03:51:58;;;;;;;12.15;5.50;;;9.00;99.90;;;;;;5048721;28;20112;-72
2023/10/25 03:54:24;;;;;;;10.63;4.93;;;9.00;99.90;;;;;;5048636;28;20055;-71
2023/10/25 03:56:49;;;;;;;7.70;4.65;;;9.00;99.90;;;;;;5030623;28;20503;-71
2023/10/25 03:59:15;;;;;;;12.43;4.65;;;9.00;99.90;;;;;;5048580;28;20107;-71
2023/10/25 04:01:41;;;;;;;10.48;4.65;;;9.00;99.90;;;;;;5030471;28;20053;-71
2023/10/25 04:04:07;;;;;;;9.15;5.00;;;9.00;99.90;;;;;;5048798;28;20424;-71
2023/10/25 04:06:33;;;;;;;10.55;5.22;;;9.00;99.90;;;;;;5030808;28;20044;-71
2023/10/25 04:08:59;;;;;;;9.75;4.90;;;9.00;99.90;;;;;;5030310;28;20620;-71
2023/10/25 04:11:25;;;;;;;10.35;4.78;;;9.00;99.90;;;;;;5048716;28;20052;-71
2023/10/25 04:13:50;;;;;;;8.90;4.63;;;9.00;99.90;;;;;;5013982;28;20123;-71
2023/10/25 04:16:16;;;;;;;7.65;4.57;;;9.00;99.90;;;;;;5048380;28;20091;-71
2023/10/25 04:18:42;;;;;;;8.48;4.90;;;9.00;99.90;;;;;;5048582;28;20055;-70
2023/10/25 04:21:12;;;;;;;9.13;4.57;;;9.00;99.90;;;;;;5030616;28;20062;-70
2023/10/25 04:23:38;;;;;;;8.27;4.93;;;8.90;99.90;;;;;;5048222;28;20076;-71
2023/10/25 04:26:09;;;;;;;11.02;4.60;;;8.90;99.90;;;;;;5048343;28;20041;-70
2023/10/25 04:28:36;;;;;;;10.20;4.65;;;8.80;99.90;;;;;;5048514;28;20094;-71
2023/10/25 04:31:02;;;;;;;8.82;4.75;;;8.80;99.90;;;;;;5048263;28;20481;-71
2023/10/25 04:33:28;;;;;;;12.95;4.78;;;8.80;99.90;;;;;;5048260;28;20052;-71
2023/10/25 04:35:55;;;;;;;6.13;4.70;;;8.80;99.90;;;;;;5048585;28;20080;-70
2023/10/25 04:38:23;;;;;;;12.50;4.82;;;8.80;99.90;;;;;;5048094;28;20083;-71
2023/10/25 04:40:49;;;;;;;12.70;5.07;;;8.80;99.90;;;;;;5031406;28;20859;-71
2023/10/25 04:43:15;;;;;;;9.40;4.25;;;8.90;99.90;;;;;;5051718;28;20551;-71
2023/10/25 04:45:41;;;;;;;11.45;4.97;;;8.80;99.90;;;;;;5052296;28;20052;-71
2023/10/25 04:48:07;;;;;;;7.65;4.90;;;8.80;99.90;;;;;;5036191;28;20130;-70
2023/10/25 04:50:35;;;;;;;11.27;5.20;;;8.80;99.90;;;;;;5052244;28;20053;-70
2023/10/25 04:53:04;;;;;;;8.02;4.75;;;8.80;99.90;;;;;;5051844;28;20339;-70
2023/10/25 04:55:31;;;;;;;7.40;4.97;;;8.80;99.90;;;;;;5051516;28;20049;-70
2023/10/25 04:57:57;;;;;;;10.75;4.78;;;8.80;99.90;;;;;;5051550;28;20076;-71
2023/10/25 05:00:23;;;;;;;10.75;5.32;;;8.70;99.90;;;;;;5051534;28;20045;-71
2023/10/25 05:02:49;;;;;;;7.25;4.45;;;8.80;99.90;;;;;;5051508;28;20061;-71
2023/10/25 05:05:15;;;;;;;8.32;5.32;;;8.80;99.90;;;;;;5051383;28;20057;-70
2023/10/25 05:07:41;;;;;;;5.47;4.05;;;8.80;99.90;;;;;;5051310;28;20114;-70
2023/10/25 05:10:09;;;;;;;9.68;4.90;;;8.80;99.90;;;;;;5017190;28;20132;-71
2023/10/25 05:12:44;;;;;;;11.73;5.03;;;8.80;99.90;;;;;;5033411;28;20420;-71
2023/10/25 05:15:11;;;;;;;8.98;4.57;;;8.80;99.90;;;;;;5051082;28;20057;-70
2023/10/25 05:17:38;;;;;;;7.70;5.22;;;8.70;99.90;;;;;;5051243;28;20122;-71
2023/10/25 05:20:05;;;;;;;7.55;4.97;;;8.70;99.90;;;;;;5033290;28;20060;-69
2023/10/25 05:22:35;;;;;;;13.27;5.07;;;8.70;99.90;;;;;;5051251;28;20049;-71
2023/10/25 05:25:04;;;;;;;5.05;4.55;;;8.70;99.90;;;;;;5051417;28;20128;-71
2023/10/25 05:27:32;;;;;;;9.18;5.03;;;8.70;99.90;;;;;;5051287;28;20072;-70
2023/10/25 05:30:03;;;;;;;8.88;5.00;;;8.70;99.90;;;;;;5032968;28;20049;-70
2023/10/25 05:32:30;;;;;;;8.95;5.78;;;8.80;99.90;;;;;;5051047;28;20077;-71
2023/10/25 05:34:57;;;;;;;11.57;5.68;;;8.80;99.90;;;;;;5032715;28;20419;-71
2023/10/25 05:37:24;;;;;;;11.07;5.68;;;8.70;99.90;;;;;;5050795;28;20056;-71
2023/10/25 05:39:50;;;;;;;8.15;5.35;;;8.70;99.90;;;;;;5051302;28;20053;-71
2023/10/25 05:42:19;;;;;;;9.77;5.72;;;8.70;99.90;;;;;;5051351;28;20130;-70
2023/10/25 05:44:47;;;;;;;14.13;5.97;;;8.70;99.90;;;;;;5033267;28;20503;-70
2023/10/25 05:47:17;;;;;;;15.20;6.05;;;8.70;99.90;;;;;;5052654;28;20072;-71
2023/10/25 05:49:43;;;;;;;9.65;5.25;;;8.60;99.90;;;;;;5067181;28;20415;-71
2023/10/25 05:52:10;;;;;;;8.70;5.82;;;8.70;99.90;;;;;;5069514;28;20056;-70
2023/10/25 05:54:37;;;;;;;8.52;5.10;;;8.60;99.90;;;;;;5071053;28;20065;-71
2023/10/25 05:57:04;;;;;;;12.18;5.55;;;8.70;99.90;;;;;;5070658;28;20053;-71
2023/10/25 05:59:30;;;;;;;10.48;5.28;;;8.60;99.90;;;;;;5070790;28;20056;-71
2023/10/25 06:02:06;;;;;;;9.60;4.70;;;8.60;99.90;;;;;;5070444;28;20056;-71
2023/10/25 06:04:34;;;;;;;11.10;5.07;;;8.60;99.90;;;;;;5052264;28;20049;-71
2023/10/25 06:06:59;;;;;;;13.57;5.30;;;8.60;99.90;;;;;;5070341;28;20145;-71
2023/10/25 06:09:26;;;;;;;8.90;5.65;;;8.60;99.90;;;;;;5068799;28;20092;-71
2023/10/25 06:11:52;;;;;;;9.27;5.40;;;8.50;99.90;;;;;;5068492;28;20059;-72
2023/10/25 06:14:18;;;;;;;9.07;5.82;;;8.50;99.90;;;;;;5069817;28;20499;-72
2023/10/25 06:16:44;;;;;;;13.15;6.85;;;8.50;99.90;;;;;;5070044;28;20118;-71
2023/10/25 06:19:09;;;;;;;12.10;5.32;;;8.50;99.90;;;;;;5069953;28;20048;-71
2023/10/25 06:21:35;;;;;;;10.90;5.38;;;8.50;99.90;;;;;;5069847;28;20052;-71
2023/10/25 06:24:01;;;;;;;9.82;5.03;;;8.50;99.90;;;;;;5070067;28;20136;-71
2023/10/25 06:26:27;;;;;;;8.32;5.20;;;8.40;99.90;;;;;;5069834;28;20554;-71
2023/10/25 06:28:53;;;;;;;8.50;4.72;;;8.40;99.90;;;;;;5069857;28;20091;-71
2023/10/25 06:31:18;;;;;;;9.15;4.82;;;8.50;99.90;;;;;;5069852;28;20878;-71
2023/10/25 06:33:44;;;;;;;10.40;5.30;;;8.50;99.90;;;;;;5069425;28;20122;-71
2023/10/25 06:36:10;;;;;;;8.65;5.30;;;8.40;99.90;;;;;;5066748;28;20131;-70
2023/10/25 06:38:37;;;;;;;8.40;5.45;;;8.40;99.90;;;;;;5059801;28;20488;-71
2023/10/25 06:41:03;;;;;;;11.77;4.75;;;8.50;99.90;;;;;;5070795;28;20539;-71
2023/10/25 06:43:30;;;;;;;7.15;5.05;;;8.40;99.90;;;;;;5070465;28;20056;-72
2023/10/25 06:45:58;;;;;;;8.65;5.30;;;8.50;99.90;;;;;;5068340;28;20075;-71
2023/10/25 06:48:24;;;;;;;10.02;5.10;;;8.50;99.90;;;;;;5069060;28;20613;-71
2023/10/25 06:50:52;;;;;;;10.10;5.30;;;8.40;99.90;;;;;;5069339;28;20128;-71
2023/10/25 06:53:20;;;;;;;7.85;4.40;;;8.50;99.90;;;;;;5067995;28;20056;-72
2023/10/25 06:55:46;;;;;;;9.40;4.80;;;8.50;99.90;;;;;;5069314;28;20044;-71
2023/10/25 06:58:12;;;;;;;11.70;5.13;;;8.40;99.90;;;;;;5069033;28;20054;-71
2023/10/25 07:00:38;;;;;;;13.10;6.28;;;8.50;99.90;;;;;;5069206;28;20050;-71
2023/10/25 07:03:06;;;;;;;10.50;5.75;;;8.40;99.90;;;;;;5068602;28;20484;-72
2023/10/25 07:05:32;;;;;;;9.13;5.80;;;8.50;99.90;;;;;;5069066;28;20054;-71
2023/10/25 07:07:59;;;;;;;6.30;5.05;;;8.50;99.90;;;;;;5067836;28;20047;-71
2023/10/25 07:10:25;;;;;;;7.97;5.38;;;8.50;99.90;;;;;;5069196;28;20052;-71
2023/10/25 07:12:51;;;;;;;12.48;5.07;;;8.50;99.90;;;;;;5052027;28;20455;-72
2023/10/25 07:15:19;;;;;;;10.20;6.13;;;8.50;99.90;;;;;;5048530;28;20108;-71
2023/10/25 07:17:49;;;;;;;11.45;5.00;;;8.60;99.90;;;;;;5045853;28;20124;-72
2023/10/25 07:20:15;;;;;;;9.38;5.18;;;8.60;99.90;;;;;;5063731;28;20053;-71
2023/10/25 07:22:41;;;;;;;8.68;5.28;;;8.60;99.90;;;;;;5048281;28;20060;-72
2023/10/25 07:25:08;;;;;;;10.60;5.63;;;8.70;99.90;;;;;;5048940;28;20037;-70
2023/10/25 07:27:34;;;;;;;11.65;5.47;;;8.70;99.90;;;;;;5047664;28;20045;-74
2023/10/25 07:30:00;;;;;;;8.02;4.93;;;8.70;99.90;;;;;;5047177;28;20048;-73
2023/10/25 07:32:26;;;;;;;7.63;4.82;;;8.80;99.90;;;;;;5048912;28;20123;-72
2023/10/25 07:34:51;;;;;;;13.40;5.13;;;8.80;99.90;;;;;;5032237;28;20437;-73
2023/10/25 07:37:17;;;;;;;14.15;5.38;;;8.80;99.90;;;;;;5029027;28;20049;-74
2023/10/25 07:39:43;;;;;;;9.63;5.18;;;8.80;99.90;;;;;;5029203;28;20408;-72
2023/10/25 07:42:09;;;;;;;11.38;4.95;;;8.80;99.90;;;;;;5029328;28;20137;-73
2023/10/25 07:44:35;;;;;;;10.95;5.05;;;8.80;99.90;;;;;;5029105;28;20049;-73
2023/10/25 07:47:01;;;;;;;9.75;6.25;;;8.80;99.90;;;;;;5027229;28;20119;-74
2023/10/25 07:49:27;;;;;;;11.25;5.60;;;8.80;99.90;;;;;;5028417;28;20532;-73
2023/10/25 07:51:56;;;;;;;10.02;5.43;;;8.80;99.90;;;;;;5027069;28;20045;-72
2023/10/25 07:54:22;;;;;;;9.82;5.82;;;8.90;99.90;;;;;;5028188;28;20528;-74
2023/10/25 07:56:48;;;;;;;11.93;5.60;;;8.90;99.90;;;;;;5028667;28;20049;-74
2023/10/25 07:59:13;;;;;;;11.48;5.32;;;8.90;99.90;;;;;;5028722;28;20049;-75
2023/10/25 08:01:39;;;;;;;9.80;5.38;;;8.90;99.90;;;;;;5028298;28;20045;-73
2023/10/25 08:04:05;;;;;;;12.10;5.85;;;8.90;99.90;;;;;;5028295;28;20049;-74
2023/10/25 08:06:31;;;;;;;12.93;6.18;;;9.00;99.90;;;;;;5028597;28;20045;-74
2023/10/25 08:08:57;;;;;;;9.82;5.55;;;9.00;99.90;;;;;;5027067;28;20041;-73
2023/10/25 08:11:23;;;;;;;12.30;5.78;;;9.00;99.90;;;;;;5027057;28;20486;-73
2023/10/25 08:13:49;;;;;;;7.65;5.53;;;9.00;99.90;;;;;;5028391;28;20064;-75
2023/10/25 08:16:14;;;;;;;7.10;5.50;;;9.00;99.90;;;;;;5036628;28;20505;-72
2023/10/25 08:18:40;;;;;;;13.40;6.18;;;9.10;99.90;;;;;;5050484;28;20620;-73
2023/10/25 08:21:14;;;;;;;10.52;6.65;;;9.00;99.90;;;;;;5051135;28;20049;-73
2023/10/25 08:23:40;;;;;;;11.90;6.30;;;9.10;99.90;;;;;;5052152;28;20049;-75
2023/10/25 08:26:06;;;;;;;9.32;6.05;;;9.20;99.90;;;;;;5051005;28;20056;-74
2023/10/25 08:28:32;;;;;;;10.43;7.05;;;9.20;99.90;;;;;;5052321;28;20045;-76
2023/10/25 08:30:57;;;;;;;8.80;5.40;;;9.30;99.90;;;;;;5052467;28;20418;-75
2023/10/25 08:33:23;;;;;;;12.52;7.28;;;9.30;99.90;;;;;;5052314;28;20076;-75
2023/10/25 08:35:49;;;;;;;9.75;6.63;;;9.30;99.90;;;;;;5052530;28;20087;-74
2023/10/25 08:38:14;;;;;;;12.98;6.40;;;9.30;99.90;;;;;;5052276;28;20580;-76
2023/10/25 08:40:41;;;;;;;11.80;6.50;;;9.30;99.90;;;;;;5050411;28;20053;-75
2023/10/25 08:43:08;;;;;;;16.65;7.13;;;9.40;99.90;;;;;;5067293;28;20117;-75
2023/10/25 08:45:37;;;;;;;10.80;7.22;;;9.40;99.90;;;;;;5061559;28;20061;-74
2023/10/25 08:48:04;;;;;;;12.75;7.57;;;9.40;99.90;;;;;;5051866;28;20645;-74
2023/10/25 08:50:33;;;;;;;12.07;7.13;;;9.50;99.90;;;;;;5051632;28;20492;-74
2023/10/25 08:52:59;;;;;;;10.73;6.80;;;9.50;99.90;;;;;;5050418;28;20056;-76
2023/10/25 08:55:25;;;;;;;13.95;7.88;;;9.50;99.90;;;;;;5050568;28;20057;-74
2023/10/25 08:57:56;;;;;;;11.32;7.32;;;9.60;99.90;;;;;;5051936;28;20056;-74
2023/10/25 09:00:28;;;;;;;15.77;7.57;;;9.60;99.90;;;;;;5052064;28;20508;-74
2023/10/25 09:02:54;;;;;;;18.90;7.10;;;9.70;99.90;;;;;;5052222;28;20049;-74
2023/10/25 09:05:19;;;;;;;10.73;7.13;;;9.80;99.90;;;;;;5051795;28;20060;-75
2023/10/25 09:07:45;;;;;;;17.50;8.32;;;9.80;99.90;;;;;;5052072;28;20060;-74
2023/10/25 09:10:15;;;;;;;16.42;7.57;;;9.90;99.90;;;;;;5050253;28;20049;-74
2023/10/25 09:12:42;;;;;;;13.13;8.07;;;10.00;99.90;;;;;;5049989;28;20088;-75
2023/10/25 09:15:08;;;;;;;11.55;7.13;;;10.10;99.90;;;;;;5049855;28;20143;-75
2023/10/25 09:17:35;;;;;;;12.35;7.78;;;10.10;99.90;;;;;;5051381;28;20056;-75
2023/10/25 09:20:00;;;;;;;10.23;7.45;;;10.20;99.90;;;;;;5033280;28;20092;-75
2023/10/25 09:22:30;;;;;;;11.73;7.70;;;10.30;99.90;;;;;;5051237;28;20130;-75
2023/10/25 09:25:01;;;;;;;12.43;7.70;;;10.30;99.90;;;;;;5051077;28;20400;-75
2023/10/25 09:27:28;;;;;;;10.18;7.35;;;10.40;99.90;;;;;;5051210;28;20107;-75
2023/10/25 09:30:09;;;;;;;13.35;6.80;;;10.40;99.90;;;;;;5051454;28;20408;-75
2023/10/25 09:32:36;;;;;;;12.87;6.40;;;10.60;99.90;;;;;;5051178;28;20101;-74
2023/10/25 09:35:03;;;;;;;16.50;6.93;;;10.60;99.90;;;;;;5033468;28;20437;-74
2023/10/25 09:37:29;;;;;;;10.68;6.35;;;10.60;99.90;;;;;;5051326;28;20053;-76
2023/10/25 09:39:54;;;;;;;13.90;6.75;;;10.70;99.90;;;;;;5051179;28;20055;-76
2023/10/25 09:42:25;;;;;;;10.55;5.82;;;10.70;99.90;;;;;;5051092;28;20056;-75
2023/10/25 09:44:57;;;;;;;12.35;6.47;;;10.80;99.90;;;;;;5051119;28;20195;-75
2023/10/25 09:47:29;;;;;;;11.65;6.28;;;10.80;99.90;;;;;;5033367;28;20082;-75
2023/10/25 09:50:06;;;;;;;11.48;5.10;;;10.90;99.90;;;;;;5049994;28;20051;-75
2023/10/25 09:52:35;;;;;;;16.73;6.03;;;10.80;99.90;;;;;;5051131;28;20120;-76
2023/10/25 09:55:14;;;;;;;8.52;5.57;;;10.80;99.90;;;;;;5032854;28;20156;-75
2023/10/25 09:57:41;;;;;;;8.50;5.72;;;10.90;99.90;;;;;;5050824;28;20416;-75
2023/10/25 10:00:08;;;;;;;10.05;5.25;;;10.90;99.90;;;;;;5051061;28;20067;-75
2023/10/25 10:02:46;;;;;;;12.57;5.85;;;10.90;99.90;;;;;;5050733;28;20568;-75
2023/10/25 10:05:35;;;;;;;9.25;5.63;;;10.90;99.90;;;;;;5049280;28;20057;-74
2023/10/25 10:08:18;;;;;;;9.43;4.93;;;11.00;99.90;;;;;;5050424;28;20041;-75
2023/10/25 10:10:52;;;;;;;;;;;11.00;99.90;;;;;;5033013;28;20473;-75
2023/10/25 10:13:20;;;;;;;8.73;5.03;;;11.00;99.90;;;;;;5049161;28;19974;-76
2023/10/25 10:16:05;;;;;;;9.18;5.20;;;11.00;99.90;;;;;;5050453;28;20576;-71
2023/10/25 10:18:35;;;;;;;12.77;7.35;;;11.10;99.90;;;;;;5050439;28;20110;-72
2023/10/25 10:21:06;;;;;;;12.07;5.75;;;11.20;99.90;;;;;;5050534;28;20516;-71
2023/10/25 10:23:39;;;;;;;10.90;5.47;;;11.20;99.90;;;;;;5050357;28;20099;-72
2023/10/25 10:26:08;;;;;;;9.52;5.50;;;11.20;99.90;;;;;;5050013;28;20060;-71
2023/10/25 10:28:41;;;;;;;8.77;5.40;;;11.30;99.90;;;;;;5048929;28;20777;-72
2023/10/25 10:31:10;;;;;;;8.68;5.57;;;11.30;99.90;;;;;;5050129;28;20043;-71
2023/10/25 10:33:44;;;;;;;6.93;5.43;;;11.30;99.90;;;;;;5050232;28;20060;-72
2023/10/25 10:36:10;;;;;;;9.63;5.32;;;11.40;99.90;;;;;;5050557;28;20057;-71
2023/10/25 10:39:14;;;;;;;12.95;5.18;;;11.40;99.90;;;;;;5048630;28;20059;-72
2023/10/25 10:41:41;;;;;;;11.07;5.32;;;11.40;99.90;;;;;;5048716;28;20187;-72
2023/10/25 10:44:07;;;;;;;8.57;5.25;;;11.40;99.90;;;;;;5049786;28;20052;-74
2023/10/25 10:47:02;;;;;;;10.48;5.07;;;11.40;99.90;;;;;;5048607;28;20059;-73
2023/10/25 10:49:30;;;;;;;7.85;5.18;;;11.50;99.90;;;;;;5043309;28;20385;-75
2023/10/25 10:51:56;;;;;;;8.10;4.93;;;11.50;99.90;;;;;;5031788;28;20773;-74
2023/10/25 10:54:22;;;;;;;8.40;5.50;;;11.50;99.90;;;;;;5049826;28;20057;-74
2023/10/25 10:56:49;;;;;;;9.68;4.90;;;11.50;99.90;;;;;;5049361;28;20057;-74
2023/10/25 10:59:15;;;;;;;8.00;4.55;;;11.60;99.90;;;;;;5049880;28;20420;-74
2023/10/25 11:01:43;;;;;;;10.80;4.72;;;11.60;99.90;;;;;;5049531;28;20052;-74
2023/10/25 11:04:09;;;;;;;12.80;5.65;;;11.60;99.90;;;;;;5049299;28;20067;-70
2023/10/25 11:06:35;;;;;;;9.98;4.53;;;11.60;99.90;;;;;;5049295;28;20044;-72
2023/10/25 11:09:01;;;;;;;7.82;4.45;;;11.60;99.90;;;;;;5049293;28;20056;-73
2023/10/25 11:11:26;;;;;;;11.20;5.20;;;11.70;99.90;;;;;;5049319;28;20045;-73
2023/10/25 11:13:53;;;;;;;9.38;5.35;;;11.70;99.90;;;;;;5049169;28;20106;-75
2023/10/25 11:16:19;;;;;;;5.28;4.15;;;11.70;99.90;;;;;;5049093;28;20049;-74
2023/10/25 11:18:45;;;;;;;9.10;4.28;;;11.70;99.90;;;;;;5048058;28;20861;-74
2023/10/25 11:21:14;;;;;;;8.68;4.32;;;11.70;99.90;;;;;;5048969;28;20131;-73
2023/10/25 11:23:40;;;;;;;7.30;4.32;;;11.60;99.90;;;;;;5048857;28;20060;-74
2023/10/25 11:26:05;;;;;;;9.07;4.95;;;11.60;99.90;;;;;;5049013;28;20052;-74
2023/10/25 11:28:33;;;;;;;9.57;4.10;;;11.60;99.90;;;;;;5049043;28;20088;-73
2023/10/25 11:31:02;;;;;;;5.80;4.15;;;11.60;99.90;;;;;;5048955;28;20114;-73
2023/10/25 11:33:28;;;;;;;9.85;4.28;;;11.50;99.90;;;;;;5047702;28;20409;-74
2023/10/25 11:35:55;;;;;;;8.68;4.38;;;11.60;99.90;;;;;;5049165;28;20083;-73
2023/10/25 11:38:23;;;;;;;7.90;4.10;;;11.60;99.90;;;;;;5030744;28;20057;-74
2023/10/25 11:40:48;;;;;;;10.05;3.90;;;11.60;99.90;;;;;;5048921;28;20048;-74
2023/10/25 11:43:14;;;;;;;7.65;4.03;;;11.60;99.90;;;;;;5048807;28;20045;-74
2023/10/25 11:45:41;;;;;;;11.23;4.63;;;11.60;99.90;;;;;;5047309;28;20064;-71
2023/10/25 11:48:08;;;;;;;7.78;3.50;;;11.60;99.90;;;;;;5046720;28;20751;-73
2023/10/25 11:50:35;;;;;;;8.77;4.07;;;11.60;99.90;;;;;;5050906;28;20122;-72
2023/10/25 11:53:01;;;;;;;5.47;3.75;;;11.60;99.90;;;;;;5036124;28;20132;-72
2023/10/25 11:55:27;;;;;;;8.23;4.15;;;11.60;99.90;;;;;;5032591;28;20140;-73
2023/10/25 11:57:55;;;;;;;7.20;3.88;;;11.50;99.90;;;;;;5032635;28;20046;-71
2023/10/25 12:00:21;;;;;;;11.27;4.00;;;11.50;99.90;;;;;;5032467;28;20460;-70
2023/10/25 12:02:46;;;;;;;10.57;4.28;;;11.50;99.90;;;;;;5032416;28;20045;-71
2023/10/25 12:05:12;;;;;;;5.28;4.32;;;11.50;99.90;;;;;;5031584;28;20104;-70
2023/10/25 12:07:38;;;;;;;7.22;4.20;;;11.50;99.90;;;;;;5032615;28;20089;-71
2023/10/25 12:10:04;;;;;;;10.32;4.32;;;11.40;99.90;;;;;;5032476;28;20053;-71
2023/10/25 12:12:31;;;;;;;9.88;4.70;;;11.40;99.90;;;;;;5032285;28;20083;-72
2023/10/25 12:14:57;;;;;;;7.00;4.28;;;11.40;99.90;;;;;;5032236;28;20103;-71
2023/10/25 12:17:23;;;;;;;11.50;4.20;;;11.40;99.90;;;;;;5032782;28;20041;-72
2023/10/25 12:19:51;;;;;;;7.85;4.43;;;11.40;99.90;;;;;;5032703;28;20057;-71
2023/10/25 12:22:18;;;;;;;9.32;4.28;;;11.40;99.90;;;;;;5031053;28;20050;-71
2023/10/25 12:24:48;;;;;;;7.28;4.00;;;11.40;99.90;;;;;;5030771;28;20057;-72
2023/10/25 12:27:14;;;;;;;8.77;4.22;;;11.40;99.90;;;;;;5032155;28;20041;-72
2023/10/25 12:29:40;;;;;;;7.20;4.18;;;11.40;99.90;;;;;;5030637;28;20513;-70
2023/10/25 12:32:06;;;;;;;8.25;4.20;;;11.40;99.90;;;;;;5032391;28;20098;-71
2023/10/25 12:34:32;;;;;;;9.55;4.95;;;11.40;99.90;;;;;;5014353;28;20091;-71
2023/10/25 12:36:58;;;;;;;6.35;3.80;;;11.40;99.90;;;;;;5042166;28;20091;-72
2023/10/25 12:39:24;;;;;;;5.50;4.03;;;11.40;99.90;;;;;;5051848;28;20037;-71
2023/10/25 12:41:50;;;;;;;12.00;4.13;;;11.40;99.90;;;;;;5048434;28;20305;-71
2023/10/25 12:44:15;;;;;;;6.55;4.03;;;11.40;99.90;;;;;;5031611;28;20516;-68
2023/10/25 12:46:42;;;;;;;7.95;3.85;;;11.40;99.90;;;;;;5031781;28;20049;-70
2023/10/25 12:49:10;;;;;;;4.93;3.78;;;11.40;99.90;;;;;;5031711;28;20062;-70
2023/10/25 12:51:36;;;;;;;14.38;5.07;;;11.40;99.90;;;;;;5031595;28;20053;-70